Time;durP1;ratioP1;P1;durP2;ratioP2;P2;SDS_P1;SDS_P2;PMS_P1;PMS_P2;Temp;Humidity;BMP_temperature;BMP_pressure;BME280_temperature;BME280_humidity;BME280_pressure;Samples;Min_cycle;Max_cycle;Signal;HPM_P1;HPM_P2
2023/04/06 00:01:40;;;;;;;0.70;0.70;;;0.10;99.90;;;;;;5034506;28;20190;-68
2023/04/06 00:04:06;;;;;;;0.70;0.70;;;0.10;99.90;;;;;;5034511;28;20313;-69
2023/04/06 00:06:33;;;;;;;0.60;0.60;;;0.00;99.90;;;;;;5034186;28;20224;-69
2023/04/06 00:08:59;;;;;;;0.57;0.57;;;0.10;99.90;;;;;;5034700;28;20190;-69
2023/04/06 00:11:25;;;;;;;0.50;0.50;;;0.10;99.90;;;;;;5032846;28;20221;-69
2023/04/06 00:13:51;;;;;;;0.85;0.85;;;0.10;99.90;;;;;;5034664;28;20202;-69
2023/04/06 00:16:18;;;;;;;0.70;0.70;;;0.10;99.90;;;;;;5034502;28;20194;-69
2023/04/06 00:18:44;;;;;;;0.60;0.60;;;0.20;99.90;;;;;;5034330;28;20744;-69
2023/04/06 00:21:14;;;;;;;0.70;0.70;;;0.20;99.90;;;;;;5034425;28;20558;-69
2023/04/06 00:23:41;;;;;;;0.60;0.60;;;0.20;99.90;;;;;;5034189;28;20194;-69
2023/04/06 00:26:07;;;;;;;0.73;0.73;;;0.20;99.90;;;;;;5019345;28;20234;-69
2023/04/06 00:28:33;;;;;;;0.60;0.60;;;0.20;99.90;;;;;;5016210;28;20241;-69
2023/04/06 00:30:59;;;;;;;0.60;0.60;;;0.20;99.90;;;;;;5034189;28;20236;-69
2023/04/06 00:33:25;;;;;;;0.73;0.73;;;0.20;99.90;;;;;;5033861;28;20186;-69
2023/04/06 00:35:51;;;;;;;0.50;0.50;;;0.20;99.90;;;;;;5034187;28;20316;-69
2023/04/06 00:38:17;;;;;;;0.60;0.60;;;0.20;99.90;;;;;;5034139;28;20214;-69
2023/04/06 00:40:46;;;;;;;0.60;0.60;;;0.10;99.90;;;;;;5032430;28;20284;-69
2023/04/06 00:43:12;;;;;;;0.60;0.60;;;0.20;99.90;;;;;;5034003;28;20200;-69
2023/04/06 00:45:39;;;;;;;0.60;0.60;;;0.20;99.90;;;;;;5033837;28;20229;-69
2023/04/06 00:48:06;;;;;;;0.60;0.60;;;0.20;99.90;;;;;;5033821;28;20194;-69
2023/04/06 00:50:32;;;;;;;0.70;0.70;;;0.20;99.90;;;;;;5033460;28;20209;-69
2023/04/06 00:52:58;;;;;;;0.60;0.60;;;0.20;99.90;;;;;;5033820;28;20198;-69
2023/04/06 00:55:24;;;;;;;0.70;0.70;;;0.20;99.90;;;;;;5033448;28;20645;-69
2023/04/06 00:57:50;;;;;;;0.60;0.60;;;0.20;99.90;;;;;;5032415;28;20202;-69
2023/04/06 01:00:17;;;;;;;0.60;0.60;;;0.20;99.90;;;;;;5033623;28;20545;-69
2023/04/06 01:02:44;;;;;;;0.70;0.70;;;0.20;99.90;;;;;;5033202;28;20221;-70
2023/04/06 01:05:13;;;;;;;0.70;0.70;;;0.20;99.90;;;;;;5043532;22;20230;-72
2023/04/06 01:07:39;;;;;;;0.60;0.60;;;0.30;99.90;;;;;;4999042;28;20191;-71
2023/04/06 01:10:31;;;;;;;0.60;0.60;;;0.30;99.90;;;;;;4993074;28;20557;-71
2023/04/06 01:12:57;;;;;;;0.60;0.60;;;0.30;99.90;;;;;;4991057;28;20587;-71
2023/04/06 01:15:28;;;;;;;0.70;0.70;;;0.30;99.90;;;;;;4991509;28;20196;-71
2023/04/06 01:17:54;;;;;;;0.60;0.60;;;0.20;99.90;;;;;;4991887;28;20196;-71
2023/04/06 01:20:51;;;;;;;0.60;0.60;;;0.20;99.90;;;;;;4993101;28;20192;-71
2023/04/06 01:23:17;;;;;;;0.60;0.60;;;0.20;99.90;;;;;;4993269;28;20209;-71
2023/04/06 01:25:42;;;;;;;0.57;0.57;;;0.30;99.90;;;;;;4990366;28;20202;-71
2023/04/06 01:28:11;;;;;;;0.60;0.60;;;0.20;99.90;;;;;;4992721;28;20199;-72
2023/04/06 01:30:37;;;;;;;0.50;0.50;;;0.30;99.90;;;;;;4991381;28;20294;-71
2023/04/06 01:33:08;;;;;;;0.60;0.60;;;0.30;99.90;;;;;;4992934;28;20242;-72
2023/04/06 01:35:34;;;;;;;0.50;0.50;;;0.30;99.90;;;;;;4992506;28;20261;-71
2023/04/06 01:38:16;;;;;;;0.60;0.60;;;0.30;99.90;;;;;;4992124;28;20203;-71
2023/04/06 01:40:42;;;;;;;0.68;0.68;;;0.30;99.90;;;;;;4992888;28;20241;-71
2023/04/06 01:43:08;;;;;;;0.80;0.80;;;0.40;99.90;;;;;;4992551;28;20234;-71
2023/04/06 01:45:34;;;;;;;0.82;0.82;;;0.30;99.90;;;;;;4992519;28;20229;-71
2023/04/06 01:48:00;;;;;;;1.13;0.93;;;0.30;99.90;;;;;;4991404;28;20207;-72
2023/04/06 01:50:28;;;;;;;0.70;0.70;;;0.30;99.90;;;;;;5007680;28;20212;-71
2023/04/06 01:52:54;;;;;;;0.70;0.70;;;0.30;99.90;;;;;;4993301;28;20199;-70
2023/04/06 01:55:45;;;;;;;0.60;0.60;;;0.30;99.90;;;;;;4992999;28;20198;-70
2023/04/06 01:58:13;;;;;;;0.70;0.70;;;0.40;99.90;;;;;;4992349;28;20686;-70
2023/04/06 02:01:23;;;;;;;0.50;0.50;;;0.40;99.90;;;;;;4989748;28;20218;-71
2023/04/06 02:03:49;;;;;;;0.80;0.80;;;0.30;99.90;;;;;;4981805;28;20216;-70
2023/04/06 02:06:15;;;;;;;0.52;0.52;;;0.30;99.90;;;;;;4992769;28;20231;-74
2023/04/06 02:08:41;;;;;;;0.50;0.50;;;0.30;99.90;;;;;;4992425;28;20289;-71
2023/04/06 02:11:15;;;;;;;0.70;0.70;;;0.30;99.90;;;;;;4992805;28;20263;-72
2023/04/06 02:13:41;;;;;;;0.60;0.60;;;0.40;99.90;;;;;;5007642;28;20199;-72
2023/04/06 02:16:10;;;;;;;0.93;0.88;;;0.40;99.90;;;;;;4992920;28;20540;-72
2023/04/06 02:18:42;;;;;;;0.70;0.70;;;0.40;99.90;;;;;;4992211;28;20198;-72
2023/04/06 02:21:19;;;;;;;0.50;0.50;;;0.40;99.90;;;;;;4991246;28;20207;-72
2023/04/06 02:23:49;;;;;;;0.70;0.70;;;0.40;99.90;;;;;;4990814;28;20711;-71
2023/04/06 02:26:18;;;;;;;0.77;0.77;;;0.40;99.90;;;;;;4990472;28;20212;-73
2023/04/06 02:28:46;;;;;;;0.60;0.60;;;0.40;99.90;;;;;;5007395;28;20762;-71
2023/04/06 02:31:38;;;;;;;0.50;0.50;;;0.40;99.90;;;;;;4992328;28;20629;-72
2023/04/06 02:34:04;;;;;;;0.70;0.70;;;0.30;99.90;;;;;;4986326;28;20627;-71
2023/04/06 02:36:48;;;;;;;0.60;0.60;;;0.30;99.90;;;;;;4992287;28;20234;-70
2023/04/06 02:39:17;;;;;;;0.68;0.68;;;0.30;99.90;;;;;;4990539;28;20232;-73
2023/04/06 02:41:43;;;;;;;0.63;0.63;;;0.30;99.90;;;;;;5007739;28;20693;-71
2023/04/06 02:44:09;;;;;;;0.60;0.60;;;0.30;99.90;;;;;;5007484;28;20195;-71
2023/04/06 02:46:44;;;;;;;0.60;0.60;;;0.30;99.90;;;;;;4992593;28;20191;-71
2023/04/06 02:49:24;;;;;;;0.52;0.52;;;0.30;99.90;;;;;;5008086;28;20222;-70
2023/04/06 02:51:56;;;;;;;0.63;0.63;;;0.20;99.90;;;;;;4995863;28;20216;-73
2023/04/06 02:54:25;;;;;;;0.60;0.60;;;0.20;99.90;;;;;;4995641;28;20218;-71
2023/04/06 02:57:23;;;;;;;0.63;0.63;;;0.20;99.90;;;;;;4994287;28;20736;-71
2023/04/06 03:00:04;;;;;;;0.70;0.70;;;0.20;99.90;;;;;;4994012;28;20204;-72
2023/04/06 03:02:36;;;;;;;0.60;0.60;;;0.20;99.90;;;;;;4977868;28;20566;-72
2023/04/06 03:05:40;;;;;;;0.70;0.70;;;0.20;99.90;;;;;;5015273;28;20320;-73
2023/04/06 03:08:17;;;;;;;0.60;0.60;;;0.20;99.90;;;;;;5011192;28;20368;-72
2023/04/06 03:10:43;;;;;;;0.60;0.60;;;0.20;99.90;;;;;;5014945;28;20214;-72
2023/04/06 03:13:11;;;;;;;0.60;0.60;;;0.30;99.90;;;;;;5030301;28;20198;-72
2023/04/06 03:15:37;;;;;;;0.60;0.60;;;0.30;99.90;;;;;;5014549;28;20214;-71
2023/04/06 03:18:03;;;;;;;0.70;0.70;;;0.30;99.90;;;;;;5014783;28;20190;-72
2023/04/06 03:20:29;;;;;;;0.50;0.50;;;0.20;99.90;;;;;;5014323;28;20665;-72
2023/04/06 03:22:55;;;;;;;0.47;0.47;;;0.30;99.90;;;;;;5013482;28;20289;-72
2023/04/06 03:25:21;;;;;;;0.60;0.60;;;0.20;99.90;;;;;;5020933;28;20685;-72
2023/04/06 03:27:47;;;;;;;0.60;0.60;;;0.20;99.90;;;;;;4995278;28;20203;-73
2023/04/06 03:30:13;;;;;;;0.50;0.50;;;0.20;99.90;;;;;;4993901;28;20291;-71
2023/04/06 03:32:39;;;;;;;0.70;0.70;;;0.20;99.90;;;;;;4994435;28;20271;-71
2023/04/06 03:35:08;;;;;;;0.60;0.60;;;0.10;99.90;;;;;;5010428;28;20615;-72
2023/04/06 03:37:37;;;;;;;0.60;0.60;;;0.20;99.90;;;;;;4994445;28;20702;-73
2023/04/06 03:40:06;;;;;;;0.60;0.60;;;0.10;99.90;;;;;;4995594;28;20199;-71
2023/04/06 03:42:32;;;;;;;0.60;0.60;;;0.20;99.90;;;;;;4994664;28;20203;-73
2023/04/06 03:44:59;;;;;;;0.50;0.50;;;0.20;99.90;;;;;;5009642;28;20547;-71
2023/04/06 03:47:40;;;;;;;0.57;0.57;;;0.20;99.90;;;;;;4994094;28;20278;-71
2023/04/06 03:50:06;;;;;;;0.60;0.60;;;0.30;99.90;;;;;;4993083;28;20593;-72
2023/04/06 03:52:32;;;;;;;0.63;0.63;;;0.30;99.90;;;;;;4994842;28;20215;-71
2023/04/06 03:55:01;;;;;;;0.63;0.63;;;0.30;99.90;;;;;;4988671;28;20706;-72
2023/04/06 03:57:49;;;;;;;0.60;0.60;;;0.20;99.90;;;;;;4987466;28;20211;-72
2023/04/06 04:00:15;;;;;;;0.60;0.60;;;0.20;99.90;;;;;;4974789;28;20287;-72
2023/04/06 04:02:41;;;;;;;0.60;0.60;;;0.20;99.90;;;;;;4974676;28;20208;-71
2023/04/06 04:05:25;;;;;;;1.35;1.25;;;0.20;99.90;;;;;;4973643;28;20231;-68
2023/04/06 04:07:52;;;;;;;0.60;0.60;;;0.20;99.90;;;;;;4989864;28;20231;-67
2023/04/06 04:10:17;;;;;;;0.60;0.60;;;0.30;99.90;;;;;;4973785;28;20574;-68
2023/04/06 04:12:43;;;;;;;0.60;0.60;;;0.30;99.90;;;;;;4974606;28;20200;-68
2023/04/06 04:15:09;;;;;;;0.68;0.68;;;0.30;99.90;;;;;;4974564;28;20259;-68
2023/04/06 04:17:35;;;;;;;0.60;0.60;;;0.30;99.90;;;;;;4974058;28;20254;-68
2023/04/06 04:20:01;;;;;;;0.60;0.60;;;0.30;99.90;;;;;;4974505;28;20201;-68
2023/04/06 04:22:27;;;;;;;0.80;0.80;;;0.20;99.90;;;;;;4989077;28;20208;-68
2023/04/06 04:24:56;;;;;;;0.50;0.50;;;0.20;99.90;;;;;;4989011;28;20228;-68
2023/04/06 04:27:22;;;;;;;0.65;0.65;;;0.20;99.90;;;;;;4974156;28;20354;-68
2023/04/06 04:29:48;;;;;;;0.52;0.52;;;0.20;99.90;;;;;;4973679;28;20663;-68
2023/04/06 04:32:13;;;;;;;0.50;0.50;;;0.30;99.90;;;;;;4974109;28;20536;-68
2023/04/06 04:34:42;;;;;;;0.70;0.70;;;0.30;99.90;;;;;;4974221;28;20192;-68
2023/04/06 04:37:08;;;;;;;0.80;0.80;;;0.30;99.90;;;;;;4974076;28;20188;-68
2023/04/06 04:39:34;;;;;;;0.70;0.70;;;0.40;99.90;;;;;;4973664;28;20563;-68
2023/04/06 04:41:59;;;;;;;0.70;0.70;;;0.30;99.90;;;;;;4974004;28;20278;-68
2023/04/06 04:44:28;;;;;;;0.93;0.90;;;0.30;99.90;;;;;;4973642;28;20196;-69
2023/04/06 04:46:54;;;;;;;0.50;0.50;;;0.30;99.90;;;;;;4973949;28;20199;-67
2023/04/06 04:49:20;;;;;;;0.73;0.73;;;0.30;99.90;;;;;;4973542;28;20275;-69
2023/04/06 04:51:46;;;;;;;0.60;0.60;;;0.30;99.90;;;;;;4980476;28;20206;-68
2023/04/06 04:54:11;;;;;;;0.80;0.80;;;0.40;99.90;;;;;;4993113;28;20183;-68
2023/04/06 04:56:37;;;;;;;0.60;0.60;;;0.40;99.90;;;;;;4992680;28;20200;-68
2023/04/06 04:59:03;;;;;;;0.80;0.80;;;0.50;99.90;;;;;;4993238;28;20223;-68
2023/04/06 05:01:29;;;;;;;0.60;0.60;;;0.50;99.90;;;;;;4992726;28;20278;-68
2023/04/06 05:03:55;;;;;;;0.68;0.68;;;0.50;99.90;;;;;;4988656;28;20228;-68
2023/04/06 05:06:20;;;;;;;0.63;0.63;;;0.60;99.90;;;;;;4973427;28;20568;-68
2023/04/06 05:08:46;;;;;;;0.50;0.50;;;0.60;99.90;;;;;;4973452;28;20238;-68
2023/04/06 05:11:12;;;;;;;0.70;0.70;;;0.60;99.90;;;;;;4973165;28;20215;-68
2023/04/06 05:13:38;;;;;;;0.80;0.80;;;0.60;99.90;;;;;;4972952;28;20195;-68
2023/04/06 05:16:04;;;;;;;4.55;2.90;;;0.60;99.90;;;;;;4973405;28;20196;-68
2023/04/06 05:18:33;;;;;;;1.75;1.60;;;0.70;99.90;;;;;;4973132;28;20618;-68
2023/04/06 05:20:58;;;;;;;0.80;0.80;;;0.70;99.90;;;;;;4973297;28;20200;-68
2023/04/06 05:23:24;;;;;;;0.70;0.70;;;0.70;99.90;;;;;;4973000;28;20196;-68
2023/04/06 05:25:50;;;;;;;0.80;0.80;;;0.70;99.90;;;;;;4973141;28;20204;-68
2023/04/06 05:28:16;;;;;;;0.70;0.70;;;0.80;99.90;;;;;;4972724;28;20200;-68
2023/04/06 05:30:44;;;;;;;0.60;0.60;;;0.80;99.90;;;;;;4973359;28;20215;-68
2023/04/06 05:33:12;;;;;;;0.60;0.60;;;0.80;99.90;;;;;;4973185;28;20590;-68
2023/04/06 05:35:38;;;;;;;0.60;0.60;;;0.80;99.90;;;;;;4972917;28;20196;-68
2023/04/06 05:38:07;;;;;;;0.60;0.60;;;0.80;99.90;;;;;;4973387;28;20276;-68
2023/04/06 05:40:33;;;;;;;0.68;0.68;;;0.90;99.90;;;;;;4972872;28;20196;-68
2023/04/06 05:42:59;;;;;;;0.70;0.70;;;0.90;99.90;;;;;;4973021;28;21083;-67
2023/04/06 05:45:25;;;;;;;0.70;0.70;;;1.00;99.90;;;;;;4972846;28;20563;-68
2023/04/06 05:47:50;;;;;;;0.60;0.60;;;1.00;99.90;;;;;;4974542;28;20288;-68
2023/04/06 05:50:16;;;;;;;0.60;0.60;;;1.00;99.90;;;;;;4992243;28;20199;-68
2023/04/06 05:52:45;;;;;;;0.60;0.60;;;1.00;99.90;;;;;;4992604;28;20187;-68
2023/04/06 05:55:11;;;;;;;0.60;0.60;;;1.00;99.90;;;;;;4992458;28;20535;-68
2023/04/06 05:57:37;;;;;;;0.70;0.70;;;1.00;99.90;;;;;;4992108;28;21344;-68
2023/04/06 06:00:03;;;;;;;0.70;0.70;;;1.00;99.90;;;;;;4992175;28;20641;-68
2023/04/06 06:02:31;;;;;;;0.57;0.57;;;1.10;99.90;;;;;;4991952;28;20330;-68
2023/04/06 06:04:57;;;;;;;0.52;0.52;;;1.10;99.90;;;;;;4991826;28;20231;-68
2023/04/06 06:07:24;;;;;;;0.70;0.70;;;1.20;99.90;;;;;;4992011;28;20210;-68
2023/04/06 06:09:50;;;;;;;0.70;0.70;;;1.20;99.90;;;;;;4990126;28;20208;-68
2023/04/06 06:12:16;;;;;;;0.60;0.60;;;1.30;99.90;;;;;;4992277;28;20211;-68
2023/04/06 06:14:42;;;;;;;0.60;0.60;;;1.20;99.90;;;;;;4991963;28;20195;-68
2023/04/06 06:17:08;;;;;;;0.70;0.70;;;1.30;99.90;;;;;;4990880;28;20204;-68
2023/04/06 06:19:34;;;;;;;0.50;0.50;;;1.30;99.90;;;;;;4990659;28;20206;-67
2023/04/06 06:22:02;;;;;;;2.13;1.98;;;1.30;99.90;;;;;;4992249;28;20207;-68
2023/04/06 06:24:28;;;;;;;0.60;0.60;;;1.40;99.90;;;;;;4994642;28;20195;-68
2023/04/06 06:26:56;;;;;;;0.60;0.60;;;1.50;99.90;;;;;;4996385;28;20259;-68
2023/04/06 06:29:23;;;;;;;0.80;0.80;;;1.50;99.90;;;;;;4995691;28;20290;-68
2023/04/06 06:31:49;;;;;;;0.60;0.60;;;1.50;99.90;;;;;;4995884;28;20199;-68
2023/04/06 06:34:15;;;;;;;0.52;0.52;;;1.50;99.90;;;;;;4995807;28;20199;-68
2023/04/06 06:36:41;;;;;;;0.55;0.55;;;1.50;99.90;;;;;;4995733;28;20203;-68
2023/04/06 06:39:07;;;;;;;2.15;1.52;;;1.40;99.90;;;;;;4995827;28;20674;-68
2023/04/06 06:41:32;;;;;;;0.50;0.50;;;1.30;99.90;;;;;;4994260;28;20286;-68
2023/04/06 06:43:58;;;;;;;0.68;0.68;;;1.20;99.90;;;;;;4995677;28;20228;-68
2023/04/06 06:46:27;;;;;;;0.70;0.70;;;1.10;99.90;;;;;;5014981;28;20202;-68
2023/04/06 06:48:52;;;;;;;0.65;0.65;;;1.10;99.90;;;;;;5015364;28;20195;-68
2023/04/06 06:51:18;;;;;;;0.60;0.60;;;1.10;99.90;;;;;;5014574;28;20681;-68
2023/04/06 06:53:44;;;;;;;0.50;0.50;;;1.10;99.90;;;;;;5015243;28;20237;-68
2023/04/06 06:56:10;;;;;;;0.60;0.60;;;1.10;99.90;;;;;;5013967;28;20191;-68
2023/04/06 06:58:39;;;;;;;0.70;0.70;;;1.10;99.90;;;;;;4996079;28;20214;-68
2023/04/06 07:01:05;;;;;;;0.70;0.70;;;1.00;99.90;;;;;;4995414;28;20561;-68
2023/04/06 07:03:30;;;;;;;0.57;0.57;;;1.10;99.90;;;;;;4994570;28;20192;-68
2023/04/06 07:05:59;;;;;;;0.60;0.60;;;1.10;99.90;;;;;;4994052;28;20207;-68
2023/04/06 07:08:25;;;;;;;0.60;0.60;;;1.20;99.90;;;;;;4995208;28;20597;-68
2023/04/06 07:10:52;;;;;;;0.60;0.60;;;1.20;99.90;;;;;;4995045;28;20207;-68
2023/04/06 07:13:22;;;;;;;0.70;0.70;;;1.20;99.90;;;;;;4994990;28;20194;-68
2023/04/06 07:15:51;;;;;;;0.50;0.50;;;1.20;99.90;;;;;;4995190;28;20192;-68
2023/04/06 07:18:17;;;;;;;0.70;0.70;;;1.20;99.90;;;;;;4994998;28;20597;-68
2023/04/06 07:20:44;;;;;;;0.60;0.60;;;1.20;99.90;;;;;;4994891;28;20199;-68
2023/04/06 07:23:10;;;;;;;0.60;0.60;;;1.20;99.90;;;;;;4994946;28;20274;-68
2023/04/06 07:25:36;;;;;;;0.65;0.65;;;1.20;99.90;;;;;;4993277;28;20268;-68
2023/04/06 07:28:02;;;;;;;0.70;0.70;;;1.20;99.90;;;;;;4994881;28;20199;-68
2023/04/06 07:30:28;;;;;;;0.65;0.65;;;1.20;99.90;;;;;;4994413;28;20219;-68
2023/04/06 07:32:58;;;;;;;0.68;0.68;;;1.20;99.90;;;;;;4994198;28;20194;-68
2023/04/06 07:35:31;;;;;;;0.68;0.68;;;1.20;99.90;;;;;;4993772;28;20658;-68
2023/04/06 07:37:57;;;;;;;0.60;0.60;;;1.20;99.90;;;;;;4994657;28;20211;-68
2023/04/06 07:40:23;;;;;;;1.42;1.33;;;1.20;99.90;;;;;;4992768;28;20199;-68
2023/04/06 07:42:50;;;;;;;0.70;0.70;;;1.20;99.90;;;;;;4993273;28;20206;-68
2023/04/06 07:45:16;;;;;;;0.70;0.70;;;1.20;99.90;;;;;;4994427;28;20563;-68
2023/04/06 07:47:42;;;;;;;0.73;0.73;;;1.20;99.90;;;;;;4994353;28;20298;-69
2023/04/06 07:50:08;;;;;;;0.65;0.65;;;1.20;99.90;;;;;;4994634;28;20210;-68
2023/04/06 07:52:34;;;;;;;0.70;0.70;;;1.20;99.90;;;;;;4994116;28;20825;-68
2023/04/06 07:55:00;;;;;;;0.70;0.70;;;1.20;99.90;;;;;;4994022;28;20270;-68
2023/04/06 07:57:26;;;;;;;0.60;0.60;;;1.10;99.90;;;;;;4993656;28;20195;-68
2023/04/06 07:59:52;;;;;;;0.60;0.60;;;1.20;99.90;;;;;;4994693;28;20545;-68
2023/04/06 08:02:18;;;;;;;0.60;0.60;;;1.20;99.90;;;;;;4994202;28;20192;-68
2023/04/06 08:04:44;;;;;;;0.60;0.60;;;1.30;99.90;;;;;;4993570;28;20227;-68
2023/04/06 08:07:10;;;;;;;0.70;0.70;;;1.20;99.90;;;;;;4994089;28;20188;-68
2023/04/06 08:09:36;;;;;;;0.70;0.70;;;1.20;99.90;;;;;;4993899;28;20192;-68
2023/04/06 08:12:02;;;;;;;0.70;0.70;;;1.20;99.90;;;;;;4993344;28;20210;-68
2023/04/06 08:14:28;;;;;;;0.60;0.60;;;1.10;99.90;;;;;;4992154;28;20662;-68
2023/04/06 08:16:53;;;;;;;0.60;0.60;;;1.20;99.90;;;;;;4994023;28;20196;-68
2023/04/06 08:19:22;;;;;;;0.70;0.70;;;1.10;99.90;;;;;;4993032;28;20674;-69
2023/04/06 08:21:48;;;;;;;0.63;0.63;;;1.20;99.90;;;;;;4993903;28;20209;-69
2023/04/06 08:24:14;;;;;;;0.60;0.60;;;1.20;99.90;;;;;;4992406;28;20203;-68
2023/04/06 08:26:43;;;;;;;0.60;0.60;;;1.30;99.90;;;;;;4993346;28;20199;-69
2023/04/06 08:29:09;;;;;;;0.60;0.60;;;1.40;99.90;;;;;;4993632;28;20208;-68
2023/04/06 08:31:35;;;;;;;0.60;0.60;;;1.30;99.90;;;;;;4993541;28;20211;-68
2023/04/06 08:34:03;;;;;;;0.80;0.80;;;1.30;99.90;;;;;;4993703;28;20558;-68
2023/04/06 08:36:29;;;;;;;0.70;0.70;;;1.20;99.90;;;;;;4992945;28;20282;-69
2023/04/06 08:38:55;;;;;;;0.52;0.52;;;1.30;99.90;;;;;;4992263;28;20287;-68
2023/04/06 08:41:21;;;;;;;0.60;0.60;;;1.30;99.90;;;;;;4993179;28;20203;-69
2023/04/06 08:43:49;;;;;;;0.70;0.70;;;1.30;99.90;;;;;;4992063;28;20662;-68
2023/04/06 08:46:16;;;;;;;0.70;0.70;;;1.20;99.90;;;;;;4991454;28;20199;-68
2023/04/06 08:48:49;;;;;;;0.60;0.60;;;1.20;99.90;;;;;;4992710;28;20195;-68
2023/04/06 08:51:15;;;;;;;0.80;0.80;;;1.30;99.90;;;;;;4992893;28;20303;-68
2023/04/06 08:53:41;;;;;;;0.70;0.70;;;1.30;99.90;;;;;;5008097;28;20670;-69
2023/04/06 08:56:09;;;;;;;0.70;0.70;;;1.30;99.90;;;;;;4992342;28;20651;-68
2023/04/06 08:58:39;;;;;;;0.60;0.60;;;1.40;99.90;;;;;;4993177;28;20659;-67
2023/04/06 09:01:11;;;;;;;0.70;0.70;;;1.60;99.90;;;;;;4991636;28;20199;-67
2023/04/06 09:03:41;;;;;;;0.70;0.70;;;1.60;99.90;;;;;;4992298;28;20720;-69
2023/04/06 09:06:09;;;;;;;0.60;0.60;;;1.60;99.90;;;;;;4992922;28;20571;-68
2023/04/06 09:08:38;;;;;;;0.60;0.60;;;1.60;99.90;;;;;;4992807;28;20192;-68
2023/04/06 09:11:04;;;;;;;0.60;0.60;;;1.60;99.90;;;;;;4992934;28;20714;-68
2023/04/06 09:13:31;;;;;;;0.70;0.70;;;1.60;99.90;;;;;;4991376;28;20651;-68
2023/04/06 09:16:04;;;;;;;0.70;0.70;;;1.80;99.90;;;;;;4992887;28;20196;-67
2023/04/06 09:18:35;;;;;;;0.70;0.70;;;1.70;99.90;;;;;;4992846;28;20203;-68
2023/04/06 09:21:02;;;;;;;0.98;0.98;;;1.70;99.90;;;;;;4992851;28;20639;-68
2023/04/06 09:23:28;;;;;;;0.70;0.70;;;1.70;99.90;;;;;;4991244;28;20222;-67
2023/04/06 09:26:08;;;;;;;0.70;0.70;;;1.70;99.90;;;;;;4992863;28;20631;-67
2023/04/06 09:28:54;;;;;;;0.50;0.50;;;1.70;99.90;;;;;;4991146;28;20222;-68
2023/04/06 09:31:32;;;;;;;0.73;0.73;;;1.60;99.90;;;;;;4992270;28;20652;-69
2023/04/06 09:33:59;;;;;;;0.60;0.60;;;1.70;99.90;;;;;;4992198;28;20230;-68
2023/04/06 09:36:33;;;;;;;0.50;0.50;;;1.80;99.90;;;;;;4990985;28;20196;-68
2023/04/06 09:39:00;;;;;;;0.80;0.80;;;2.00;99.90;;;;;;4992549;28;20188;-68
2023/04/06 09:41:34;;;;;;;1.00;1.00;;;2.10;99.90;;;;;;4992293;28;20207;-69
2023/04/06 09:44:10;;;;;;;0.60;0.60;;;2.20;99.90;;;;;;4992521;28;20199;-68
2023/04/06 09:46:44;;;;;;;0.50;0.50;;;2.40;99.90;;;;;;4992096;28;20238;-68
2023/04/06 09:49:12;;;;;;;0.60;0.60;;;2.40;99.90;;;;;;4992397;28;20274;-68
2023/04/06 09:51:40;;;;;;;0.73;0.73;;;2.40;99.90;;;;;;4992542;28;20273;-72
2023/04/06 09:54:07;;;;;;;0.57;0.57;;;2.50;99.90;;;;;;4992579;28;20187;-72
2023/04/06 09:56:46;;;;;;;0.70;0.70;;;2.50;99.90;;;;;;4991610;28;20282;-72
2023/04/06 09:59:25;;;;;;;0.70;0.70;;;2.50;99.90;;;;;;4994931;28;20434;-73
2023/04/06 10:01:53;;;;;;;0.70;0.70;;;2.50;99.90;;;;;;4996493;28;20605;-72
2023/04/06 10:04:31;;;;;;;0.60;0.60;;;2.40;99.90;;;;;;4995750;28;20377;-72
2023/04/06 10:06:58;;;;;;;0.80;0.80;;;2.50;99.90;;;;;;4996409;28;20331;-72
2023/04/06 10:09:29;;;;;;;0.70;0.70;;;2.50;99.90;;;;;;4996109;28;20226;-72
2023/04/06 10:11:55;;;;;;;0.70;0.70;;;2.40;99.90;;;;;;4996558;28;20203;-72
2023/04/06 10:14:21;;;;;;;0.63;0.63;;;2.50;99.90;;;;;;4995922;28;20200;-72
2023/04/06 10:16:49;;;;;;;0.70;0.70;;;2.50;99.90;;;;;;4995990;28;20713;-72
2023/04/06 10:19:26;;;;;;;0.70;0.70;;;2.50;99.90;;;;;;4995523;28;20214;-72
2023/04/06 10:21:58;;;;;;;0.60;0.60;;;2.60;99.90;;;;;;4995623;28;20203;-72
2023/04/06 10:24:26;;;;;;;0.50;0.50;;;2.70;99.90;;;;;;4996040;28;20191;-72
2023/04/06 10:27:01;;;;;;;0.70;0.70;;;2.60;99.90;;;;;;4996500;28;20195;-72
2023/04/06 10:29:27;;;;;;;0.77;0.77;;;2.70;99.90;;;;;;4995685;28;20285;-73
2023/04/06 10:31:55;;;;;;;0.70;0.70;;;2.80;99.90;;;;;;4996192;28;20207;-72
2023/04/06 10:34:21;;;;;;;0.82;0.82;;;2.90;99.90;;;;;;4995656;28;20184;-72
2023/04/06 10:36:46;;;;;;;0.63;0.63;;;3.00;99.90;;;;;;4995751;28;20678;-72
2023/04/06 10:39:12;;;;;;;0.70;0.70;;;3.00;99.90;;;;;;4995791;28;20199;-73
2023/04/06 10:41:43;;;;;;;0.70;0.70;;;2.90;99.90;;;;;;4995307;28;20211;-72
2023/04/06 10:44:21;;;;;;;0.50;0.50;;;2.90;99.90;;;;;;4995803;28;20191;-73
2023/04/06 10:46:57;;;;;;;0.65;0.65;;;2.80;99.90;;;;;;4995433;28;20274;-73
2023/04/06 10:49:25;;;;;;;0.70;0.70;;;2.90;99.90;;;;;;4995102;28;20210;-73
2023/04/06 10:51:55;;;;;;;0.63;0.63;;;3.10;99.90;;;;;;4994210;28;20215;-72
2023/04/06 10:54:23;;;;;;;0.80;0.80;;;3.20;99.90;;;;;;4995361;28;20184;-72
2023/04/06 10:56:49;;;;;;;0.70;0.70;;;3.30;99.90;;;;;;4995565;28;20192;-72
2023/04/06 10:59:22;;;;;;;0.60;0.60;;;3.40;99.90;;;;;;4995571;28;20271;-73
2023/04/06 11:01:48;;;;;;;0.70;0.70;;;3.40;99.90;;;;;;4995101;28;20192;-72
2023/04/06 11:04:18;;;;;;;0.70;0.70;;;3.30;99.90;;;;;;4988456;28;20220;-72
2023/04/06 11:06:48;;;;;;;7.75;1.23;;;3.40;99.90;;;;;;4975662;28;20204;-72
2023/04/06 11:09:26;;;;;;;0.70;0.70;;;3.50;99.90;;;;;;4975354;28;20196;-72
2023/04/06 11:11:53;;;;;;;0.80;0.80;;;3.60;99.90;;;;;;4975271;28;20208;-72
2023/04/06 11:14:19;;;;;;;0.70;0.70;;;3.70;99.90;;;;;;4975547;28;20198;-72
2023/04/06 11:16:50;;;;;;;0.70;0.70;;;3.80;99.90;;;;;;4975761;28;20318;-73
2023/04/06 11:19:17;;;;;;;0.60;0.60;;;3.80;99.90;;;;;;4981881;28;20199;-73
2023/04/06 11:21:48;;;;;;;0.60;0.60;;;3.70;99.90;;;;;;4994298;28;20199;-73
2023/04/06 11:24:22;;;;;;;0.57;0.57;;;3.70;99.90;;;;;;4992909;28;20203;-72
2023/04/06 11:26:53;;;;;;;0.60;0.60;;;3.90;99.90;;;;;;5007288;28;20202;-73
2023/04/06 11:29:21;;;;;;;0.63;0.63;;;4.10;99.90;;;;;;5014319;28;20199;-72
2023/04/06 11:31:48;;;;;;;0.52;0.52;;;4.20;99.90;;;;;;5014752;28;20206;-72
2023/04/06 11:34:19;;;;;;;0.80;0.80;;;4.40;99.90;;;;;;5014699;28;20191;-73
2023/04/06 11:36:47;;;;;;;2.45;2.25;;;4.30;99.90;;;;;;5012601;28;20223;-72
2023/04/06 11:39:17;;;;;;;0.60;0.60;;;4.50;99.90;;;;;;4997573;28;20199;-73
2023/04/06 11:41:50;;;;;;;0.70;0.70;;;4.40;99.90;;;;;;4994456;28;20566;-72
2023/04/06 11:44:38;;;;;;;1.05;1.00;;;4.30;99.90;;;;;;4994569;28;20346;-72
2023/04/06 11:47:06;;;;;;;0.70;0.70;;;4.20;99.90;;;;;;4994549;28;20230;-72
2023/04/06 11:49:36;;;;;;;0.70;0.70;;;4.00;99.90;;;;;;4994197;28;20195;-72
2023/04/06 11:52:02;;;;;;;0.70;0.70;;;3.70;99.90;;;;;;4994344;28;20207;-72
2023/04/06 11:54:31;;;;;;;0.80;0.80;;;3.50;99.90;;;;;;4994168;28;20188;-72
2023/04/06 11:56:57;;;;;;;0.57;0.57;;;3.70;99.90;;;;;;4994250;28;20247;-72
2023/04/06 11:59:23;;;;;;;0.70;0.70;;;3.70;99.90;;;;;;4994052;28;20701;-72
2023/04/06 12:01:49;;;;;;;0.70;0.70;;;3.90;99.90;;;;;;4994395;28;20210;-72
2023/04/06 12:04:14;;;;;;;0.60;0.60;;;4.00;99.90;;;;;;4993821;28;20304;-72
2023/04/06 12:06:40;;;;;;;0.75;0.75;;;4.10;99.90;;;;;;4993972;28;20196;-73
2023/04/06 12:09:06;;;;;;;0.80;0.80;;;4.00;99.90;;;;;;4994301;28;20218;-73
2023/04/06 12:11:32;;;;;;;0.70;0.70;;;4.00;99.90;;;;;;4993766;28;20207;-73
2023/04/06 12:13:59;;;;;;;0.70;0.70;;;4.00;99.90;;;;;;4994088;28;20278;-73
2023/04/06 12:16:25;;;;;;;0.60;0.60;;;3.80;99.90;;;;;;4993857;28;20188;-73
2023/04/06 12:18:51;;;;;;;0.70;0.70;;;3.70;99.90;;;;;;4993307;28;20195;-74
2023/04/06 12:21:17;;;;;;;0.63;0.63;;;3.60;99.90;;;;;;4993417;28;20199;-72
2023/04/06 12:23:42;;;;;;;0.80;0.80;;;3.50;99.90;;;;;;4994142;28;20275;-72
2023/04/06 12:26:08;;;;;;;1.83;1.70;;;3.50;99.90;;;;;;4994059;28;20206;-72
2023/04/06 12:28:34;;;;;;;0.70;0.70;;;3.50;99.90;;;;;;4993612;28;20211;-72
2023/04/06 12:31:00;;;;;;;0.60;0.60;;;3.40;99.90;;;;;;4993839;28;20697;-72
2023/04/06 12:33:26;;;;;;;0.80;0.80;;;3.40;99.90;;;;;;4992038;28;20195;-72
2023/04/06 12:35:51;;;;;;;0.57;0.57;;;3.40;99.90;;;;;;4974394;28;20219;-73
2023/04/06 12:38:17;;;;;;;0.60;0.60;;;3.40;99.90;;;;;;4989070;28;20196;-72
2023/04/06 12:40:43;;;;;;;0.68;0.68;;;3.50;99.90;;;;;;4973977;28;20292;-72
2023/04/06 12:43:09;;;;;;;1.25;1.17;;;3.40;99.90;;;;;;4974169;28;20691;-72
2023/04/06 12:45:35;;;;;;;0.70;0.70;;;3.50;99.90;;;;;;4973850;28;20231;-73
2023/04/06 12:48:01;;;;;;;0.60;0.60;;;3.50;99.90;;;;;;4974089;28;20682;-72
2023/04/06 12:50:27;;;;;;;0.70;0.70;;;3.60;99.90;;;;;;4973659;28;20212;-72
2023/04/06 12:52:53;;;;;;;0.70;0.70;;;3.60;99.90;;;;;;4974000;28;20188;-72
2023/04/06 12:55:18;;;;;;;0.70;0.70;;;3.50;99.90;;;;;;4973596;28;20282;-72
2023/04/06 12:57:47;;;;;;;0.60;0.60;;;3.50;99.90;;;;;;4973153;28;20196;-72
2023/04/06 13:00:14;;;;;;;0.70;0.70;;;3.60;99.90;;;;;;4982362;28;20265;-72
2023/04/06 13:02:46;;;;;;;0.60;0.60;;;3.60;99.90;;;;;;5012805;28;20191;-73
2023/04/06 13:05:12;;;;;;;0.80;0.80;;;3.60;99.90;;;;;;4997457;28;20220;-73